Time;durP1;ratioP1;P1;durP2;ratioP2;P2;SDS_P1;SDS_P2;PMS_P1;PMS_P2;Temp;Humidity;BMP_temperature;BMP_pressure;BME280_temperature;BME280_humidity;BME280_pressure;Samples;Min_cycle;Max_cycle;Signal;HPM_P1;HPM_P2
2022/12/12 00:01:56;;;;;;;5.15;2.97;;;-5.70;99.90;;;;;;21156708;28;20484;-80
2022/12/12 00:11:57;;;;;;;5.43;3.10;;;-5.90;99.90;;;;;;21157995;28;20024;-79
2022/12/12 00:21:58;;;;;;;7.93;4.35;;;-6.30;99.90;;;;;;21140082;28;20043;-79
2022/12/12 00:31:59;;;;;;;10.25;3.45;;;-6.30;99.90;;;;;;21137297;28;20123;-79
2022/12/12 00:41:59;;;;;;;12.70;6.15;;;-6.10;99.90;;;;;;21133621;28;20085;-77
2022/12/12 00:52:00;;;;;;;17.98;6.97;;;-5.70;99.90;;;;;;21148481;28;20028;-79
2022/12/12 01:02:01;;;;;;;5.75;2.58;;;-5.70;99.90;;;;;;21165995;28;20543;-78
2022/12/12 01:12:02;;;;;;;6.95;3.80;;;-5.70;99.90;;;;;;21149653;28;20488;-79
2022/12/12 01:22:03;;;;;;;5.95;3.58;;;-5.90;99.90;;;;;;21180970;28;20027;-79
2022/12/12 01:32:04;;;;;;;5.63;2.70;;;-6.10;99.90;;;;;;21261393;27;20047;-77
2022/12/12 01:42:15;;;;;;;9.85;3.85;;;-6.00;99.90;;;;;;21203056;27;20034;-80
2022/12/12 01:52:20;;;;;;;9.55;4.55;;;-5.80;99.90;;;;;;21148144;28;20023;-79
2022/12/12 02:02:22;;;;;;;10.25;4.90;;;-5.50;99.90;;;;;;21184629;28;20028;-79
2022/12/12 02:12:23;;;;;;;5.88;3.10;;;-5.30;99.90;;;;;;21145605;28;20088;-78
2022/12/12 02:22:42;;;;;;;8.60;3.85;;;-5.10;99.90;;;;;;21180428;28;20111;-78
2022/12/12 02:32:53;;;;;;;13.50;4.10;;;-5.10;99.90;;;;;;21164554;28;20054;-80
2022/12/12 02:43:19;;;;;;;8.18;3.40;;;-5.10;99.90;;;;;;21185628;28;20065;-78
2022/12/12 02:53:22;;;;;;;8.18;3.72;;;-5.10;99.90;;;;;;21107764;22;20104;-80
2022/12/12 03:14:16;;;;;;;17.02;7.28;;;-5.40;99.90;;;;;;21021811;28;20424;-80
2022/12/12 03:24:47;;;;;;;16.02;5.72;;;-5.40;99.90;;;;;;21033071;28;20024;-80
2022/12/12 03:35:08;;;;;;;15.52;7.60;;;-5.50;99.90;;;;;;21084843;28;20035;-79
2022/12/12 03:45:53;;;;;;;10.23;5.50;;;-5.40;99.90;;;;;;21108185;28;20336;-81
2022/12/12 03:56:04;;;;;;;12.75;6.25;;;-5.40;99.90;;;;;;21035936;28;20090;-78
2022/12/12 04:06:25;;;;;;;13.95;7.40;;;-5.30;99.90;;;;;;21108261;28;20024;-79
2022/12/12 04:16:32;;;;;;;16.65;7.20;;;-5.10;99.90;;;;;;21104377;28;20028;-78
2022/12/12 04:26:41;;;;;;;11.68;5.72;;;-5.10;99.90;;;;;;21061978;28;20050;-82
2022/12/12 04:36:44;;;;;;;12.82;5.25;;;-5.00;99.90;;;;;;21089046;28;20034;-78
2022/12/12 04:46:49;;;;;;;12.77;5.72;;;-5.20;99.90;;;;;;21101923;28;20051;-81
2022/12/12 04:56:55;;;;;;;12.18;5.20;;;-5.20;99.90;;;;;;21087783;28;20527;-81
2022/12/12 05:07:02;;;;;;;11.63;5.45;;;-5.30;99.90;;;;;;21102265;28;20031;-82
2022/12/12 05:17:08;;;;;;;10.35;5.25;;;-5.30;99.90;;;;;;21108485;28;20042;-79
2022/12/12 05:27:11;;;;;;;12.60;5.95;;;-5.30;99.90;;;;;;21074831;28;20504;-82
2022/12/12 05:37:12;;;;;;;17.38;6.75;;;-5.30;99.90;;;;;;21118972;28;20100;-78
2022/12/12 05:47:13;;;;;;;12.00;5.75;;;-5.20;99.90;;;;;;21121183;28;20488;-83
2022/12/12 05:57:15;;;;;;;14.38;5.97;;;-5.10;99.90;;;;;;21100786;28;20035;-83
2022/12/12 06:07:16;;;;;;;14.45;6.43;;;-5.10;99.90;;;;;;21111020;28;20032;-78
2022/12/12 06:17:17;;;;;;;15.57;6.10;;;-5.10;99.90;;;;;;21074762;28;20085;-82
2022/12/12 06:27:17;;;;;;;16.27;6.47;;;-5.10;99.90;;;;;;21116879;28;20050;-80
2022/12/12 06:37:19;;;;;;;15.05;6.63;;;-5.10;99.90;;;;;;21096862;28;20487;-78
2022/12/12 06:47:20;;;;;;;18.55;6.97;;;-5.00;99.90;;;;;;21106776;28;20043;-82
2022/12/12 06:57:21;;;;;;;15.25;7.15;;;-5.10;99.90;;;;;;21113432;28;20090;-81
2022/12/12 07:07:21;;;;;;;14.88;6.82;;;-5.00;99.90;;;;;;21114760;28;20040;-79
2022/12/12 07:17:22;;;;;;;24.75;7.47;;;-4.90;99.90;;;;;;21117027;28;20077;-79
2022/12/12 07:27:23;;;;;;;19.05;7.07;;;-4.90;99.90;;;;;;21113412;28;20043;-82
2022/12/12 07:37:24;;;;;;;23.55;7.65;;;-4.90;99.90;;;;;;21068637;28;20032;-81
2022/12/12 07:47:24;;;;;;;15.63;7.93;;;-4.90;99.90;;;;;;21066036;28;20089;-80
2022/12/12 07:57:25;;;;;;;26.58;9.73;;;-4.80;99.90;;;;;;21084756;28;20031;-83
2022/12/12 08:07:26;;;;;;;27.58;9.10;;;-4.60;99.90;;;;;;21120737;28;20058;-81
2022/12/12 08:17:27;;;;;;;19.65;7.97;;;-4.40;99.90;;;;;;21047123;28;20028;-82
2022/12/12 08:27:29;;;;;;;24.45;9.30;;;-4.30;99.90;;;;;;21070595;28;20489;-82
2022/12/12 08:37:29;;;;;;;20.05;9.55;;;-4.30;99.90;;;;;;21073566;28;20391;-81
2022/12/12 08:47:30;;;;;;;21.15;9.05;;;-4.20;99.90;;;;;;21120701;22;20054;-78
2022/12/12 08:57:31;;;;;;;20.85;8.93;;;-4.10;99.90;;;;;;21252662;27;20053;-79
2022/12/12 09:07:32;;;;;;;24.33;9.07;;;-3.90;99.90;;;;;;21303941;27;20357;-79
2022/12/12 09:17:32;;;;;;;19.33;9.20;;;-3.90;99.90;;;;;;21285234;27;20086;-80
2022/12/12 09:27:33;;;;;;;18.88;8.00;;;-3.70;99.90;;;;;;21367918;27;20275;-79
2022/12/12 09:37:34;;;;;;;21.70;9.93;;;-3.70;99.90;;;;;;21313148;27;20084;-80
2022/12/12 09:47:43;;;;;;;22.73;9.50;;;-3.60;99.90;;;;;;21250786;27;20045;-79
2022/12/12 09:58:11;;;;;;;19.17;9.60;;;-3.40;99.90;;;;;;21256489;27;20402;-79
2022/12/12 10:08:27;;;;;;;30.25;10.98;;;-3.10;99.90;;;;;;21289039;27;20031;-80
2022/12/12 10:18:33;;;;;;;21.73;9.75;;;-3.10;99.90;;;;;;21286539;27;20605;-79
2022/12/12 10:28:34;;;;;;;26.35;10.10;;;-3.20;99.90;;;;;;21299555;27;20038;-80
2022/12/12 10:38:44;;;;;;;27.75;11.30;;;-3.10;99.90;;;;;;21299859;27;20027;-80
2022/12/12 10:48:47;;;;;;;36.70;12.43;;;-3.10;99.90;;;;;;21300342;27;20035;-80
2022/12/12 10:58:56;;;;;;;38.70;13.30;;;-3.10;99.90;;;;;;21255227;27;20052;-79
2022/12/12 11:09:14;;;;;;;20.77;10.45;;;-3.00;99.90;;;;;;21243229;27;20042;-81
2022/12/12 11:19:17;;;;;;;22.88;9.23;;;-2.80;99.90;;;;;;21243788;27;20102;-80
2022/12/12 11:29:45;;;;;;;23.25;10.13;;;-2.80;99.90;;;;;;21276148;27;20033;-80
2022/12/12 11:39:50;;;;;;;22.13;9.75;;;-2.70;99.90;;;;;;21407435;27;20022;-80
2022/12/12 11:49:54;;;;;;;23.90;10.80;;;-2.60;99.90;;;;;;21383242;27;20358;-79
2022/12/12 12:00:12;;;;;;;27.25;10.93;;;-2.50;99.90;;;;;;21276024;27;20541;-79
2022/12/12 12:10:47;;;;;;;29.42;11.77;;;-2.60;99.90;;;;;;21260506;27;20050;-79
2022/12/12 12:21:18;;;;;;;31.13;12.15;;;-2.40;99.90;;;;;;21254588;27;20027;-79
2022/12/12 12:31:23;;;;;;;32.25;12.48;;;-2.10;99.90;;;;;;21260699;27;20387;-78
2022/12/12 12:41:38;;;;;;;26.80;12.07;;;-2.40;99.90;;;;;;21247488;27;20031;-80
2022/12/12 12:51:51;;;;;;;82.72;29.08;;;-2.40;99.90;;;;;;21225729;27;20110;-80
2022/12/12 13:01:54;;;;;;;28.50;11.70;;;-2.40;99.90;;;;;;21273330;27;20062;-80
2022/12/12 13:12:19;;;;;;;30.73;12.52;;;-2.40;99.90;;;;;;21279682;27;20023;-80
2022/12/12 13:22:31;;;;;;;27.67;11.65;;;-2.60;99.90;;;;;;21294982;27;20042;-80
2022/12/12 13:33:03;;;;;;;24.88;11.00;;;-2.60;99.90;;;;;;21329831;27;20094;-80
2022/12/12 13:43:06;;;;;;;27.75;12.20;;;-2.60;99.90;;;;;;21314286;27;20679;-79
2022/12/12 13:53:07;;;;;;;31.88;13.25;;;-2.60;99.90;;;;;;21238243;27;20082;-81
2022/12/12 14:03:11;;;;;;;31.00;13.25;;;-2.50;99.90;;;;;;21257504;27;20039;-80
2022/12/12 14:13:32;;;;;;;28.67;12.55;;;-2.40;99.90;;;;;;21281582;27;20033;-80
2022/12/12 14:23:39;;;;;;;28.35;12.13;;;-2.70;99.90;;;;;;21286397;27;20381;-79
2022/12/12 14:34:02;;;;;;;30.35;12.18;;;-2.90;99.90;;;;;;21273887;27;20027;-80
2022/12/12 14:44:12;;;;;;;23.77;9.88;;;-2.90;99.90;;;;;;21339417;27;20121;-79
2022/12/12 14:54:19;;;;;;;31.60;11.25;;;-3.30;99.90;;;;;;21042496;22;20037;-79
2022/12/12 15:04:25;;;;;;;29.70;12.93;;;-3.30;99.90;;;;;;20964982;28;20025;-78
2022/12/12 15:14:27;;;;;;;30.40;11.68;;;-3.40;99.90;;;;;;20959894;28;20041;-78
2022/12/12 15:24:36;;;;;;;28.02;11.68;;;-3.40;99.90;;;;;;20964371;28;20094;-77
2022/12/12 15:34:40;;;;;;;26.30;12.00;;;-3.50;99.90;;;;;;20974851;28;20116;-76
2022/12/12 15:44:43;;;;;;;28.48;12.25;;;-3.50;99.90;;;;;;20939050;28;20079;-77
2022/12/12 15:54:46;;;;;;;28.40;12.23;;;-3.60;99.90;;;;;;20922943;28;20082;-79
2022/12/12 16:05:25;;;;;;;30.95;12.02;;;-3.50;99.90;;;;;;20917995;28;20513;-78
2022/12/12 16:15:33;;;;;;;29.52;10.70;;;-3.60;99.90;;;;;;20939622;28;20492;-78
2022/12/12 16:25:33;;;;;;;26.38;11.63;;;-3.70;99.90;;;;;;20911175;28;20454;-78
2022/12/12 16:35:34;;;;;;;30.02;11.40;;;-3.70;99.90;;;;;;21068698;28;20028;-78
2022/12/12 16:45:35;;;;;;;29.23;12.35;;;-3.60;99.90;;;;;;20978262;28;20490;-79
2022/12/12 16:55:39;;;;;;;30.38;11.77;;;-3.60;99.90;;;;;;20996833;28;20382;-77
2022/12/12 17:05:42;;;;;;;29.23;12.13;;;-3.60;99.90;;;;;;21008657;28;20029;-77
2022/12/12 17:15:43;;;;;;;36.95;14.48;;;-3.70;99.90;;;;;;20964099;28;20483;-78
2022/12/12 17:25:46;;;;;;;24.48;10.80;;;-3.70;99.90;;;;;;20983675;28;20017;-76
2022/12/12 17:35:58;;;;;;;28.02;12.98;;;-3.60;99.90;;;;;;20933366;28;20037;-77
2022/12/12 17:46:02;;;;;;;29.10;12.20;;;-3.70;99.90;;;;;;20960221;28;20491;-77
2022/12/12 17:56:08;;;;;;;25.83;12.68;;;-3.70;99.90;;;;;;21063540;28;20478;-75
2022/12/12 18:06:10;;;;;;;26.85;12.30;;;-3.80;99.90;;;;;;20975845;28;20037;-77
2022/12/12 18:16:11;;;;;;;30.17;13.38;;;-3.80;99.90;;;;;;20962754;28;20029;-77
2022/12/12 18:26:16;;;;;;;30.98;11.90;;;-3.90;99.90;;;;;;21016502;28;20020;-79
2022/12/12 18:36:22;;;;;;;25.27;10.68;;;-4.10;99.90;;;;;;21024092;28;20029;-78
2022/12/12 18:46:25;;;;;;;27.60;11.88;;;-4.30;99.90;;;;;;20969944;28;20021;-78
2022/12/12 18:56:27;;;;;;;26.25;11.73;;;-4.30;99.90;;;;;;20919707;28;20083;-77
2022/12/12 19:06:33;;;;;;;26.10;11.43;;;-4.30;99.90;;;;;;20941590;28;20600;-76
2022/12/12 19:16:33;;;;;;;22.77;10.25;;;-4.30;99.90;;;;;;20995516;28;20033;-77
2022/12/12 19:26:35;;;;;;;25.23;9.07;;;-4.30;99.90;;;;;;20958335;28;20032;-79
2022/12/12 19:36:38;;;;;;;27.90;11.77;;;-4.50;99.90;;;;;;21001907;28;20036;-78
2022/12/12 19:46:41;;;;;;;26.35;11.55;;;-4.50;99.90;;;;;;20965665;28;20486;-77
2022/12/12 19:56:42;;;;;;;28.65;11.98;;;-4.70;99.90;;;;;;20950870;28;20062;-76
2022/12/12 20:06:44;;;;;;;29.00;11.63;;;-4.70;99.90;;;;;;20953960;28;20421;-76
2022/12/12 20:16:46;;;;;;;29.70;11.85;;;-5.00;99.90;;;;;;20987857;28;20036;-76
2022/12/12 20:26:47;;;;;;;28.55;11.48;;;-5.00;99.90;;;;;;20981027;28;20664;-75
2022/12/12 20:36:49;;;;;;;31.80;13.85;;;-5.00;99.90;;;;;;21010025;28;20025;-78
2022/12/12 20:46:50;;;;;;;33.72;13.80;;;-5.00;99.90;;;;;;20982873;22;20519;-78
2022/12/12 20:56:52;;;;;;;31.27;15.40;;;-5.10;99.90;;;;;;21161978;28;20020;-79
2022/12/12 21:06:53;;;;;;;39.05;15.38;;;-5.10;99.90;;;;;;21133271;28;20489;-79
2022/12/12 21:16:54;;;;;;;41.75;15.20;;;-5.30;99.90;;;;;;21165026;28;20039;-80
2022/12/12 21:26:55;;;;;;;44.05;13.90;;;-5.40;99.90;;;;;;21176663;28;20669;-80
2022/12/12 21:36:56;;;;;;;31.60;13.32;;;-5.40;99.90;;;;;;21165746;28;20100;-78
2022/12/12 21:46:56;;;;;;;32.70;13.45;;;-5.50;99.90;;;;;;21128586;28;20057;-80
2022/12/12 21:56:59;;;;;;;33.42;13.00;;;-5.50;99.90;;;;;;21159611;28;20100;-80
2022/12/12 22:07:00;;;;;;;35.22;14.77;;;-5.60;99.90;;;;;;21158176;28;20382;-79
2022/12/12 22:17:02;;;;;;;29.73;12.38;;;-5.70;99.90;;;;;;21137702;28;20051;-80
2022/12/12 22:27:03;;;;;;;34.17;13.68;;;-5.70;99.90;;;;;;21139723;28;20070;-79
2022/12/12 22:37:04;;;;;;;37.75;14.43;;;-5.80;99.90;;;;;;21172901;28;20031;-78
2022/12/12 22:47:04;;;;;;;25.30;12.60;;;-5.90;99.90;;;;;;21154819;28;20058;-79
2022/12/12 22:57:05;;;;;;;29.55;12.52;;;-5.90;99.90;;;;;;21152716;28;20085;-79
2022/12/12 23:07:06;;;;;;;21.42;11.02;;;-5.90;99.90;;;;;;21135506;28;20032;-79
2022/12/12 23:17:07;;;;;;;27.42;11.85;;;-6.00;99.90;;;;;;21203064;27;20495;-81
2022/12/12 23:27:08;;;;;;;25.75;11.23;;;-6.10;99.90;;;;;;21163480;27;20119;-80
2022/12/12 23:37:08;;;;;;;31.42;11.25;;;-6.10;99.90;;;;;;21148831;28;20032;-79
2022/12/12 23:47:09;;;;;;;25.05;9.90;;;-6.10;99.90;;;;;;21215639;27;20495;-80
2022/12/12 23:57:11;;;;;;;26.52;10.38;;;-6.10;99.90;;;;;;21253422;27;20041;-80
